Time;durP1;ratioP1;P1;durP2;ratioP2;P2;SDS_P1;SDS_P2;PMS_P1;PMS_P2;Temp;Humidity;BMP_temperature;BMP_pressure;BME280_temperature;BME280_humidity;BME280_pressure;Samples;Min_cycle;Max_cycle;Signal;HPM_P1;HPM_P2
2022/04/09 00:01:21;;;;;;;;;;;;;;;4.31;71.45117;100445;;;;-80
2022/04/09 00:06:23;;;;;;;;;;;;;;;4.28;71.38086;100449.8;;;;-81
2022/04/09 00:10:16;;;;;;;6.2;0.9;;;;;;;;;;;;;-80
2022/04/09 00:11:21;;;;;;;;;;;;;;;4.24;71.38477;100462.8;;;;-81
2022/04/09 00:16:24;;;;;;;;;;;;;;;4.2;71.30176;100472.6;;;;-82
2022/04/09 00:21:28;;;;;;;;;;;;;;;4.19;71.36621;100485.4;;;;-81
2022/04/09 00:26:23;;;;;;;;;;;;;;;4.19;71.47559;100487.5;;;;-81
2022/04/09 00:31:26;;;;;;;;;;;;;;;4.21;71.51074;100489.1;;;;-82
2022/04/09 00:36:21;;;;;;;;;;;;;;;4.22;71.49219;100491.8;;;;-81
2022/04/09 00:40:00;;;;;;;6.7;0.8;;;;;;;;;;;;;-81
2022/04/09 00:41:21;;;;;;;;;;;;;;;4.24;71.52637;100505;;;;-82
2022/04/09 00:46:23;;;;;;;;;;;;;;;4.22;71.52539;100511.1;;;;-82
2022/04/09 00:51:21;;;;;;;;;;;;;;;4.22;71.6875;100518.2;;;;-82
2022/04/09 00:56:25;;;;;;;;;;;;;;;4.24;71.94238;100574.7;;;;-82
2022/04/09 01:01:22;;;;;;;;;;;;;;;4.25;72.97266;100548.9;;;;-81
2022/04/09 01:06:21;;;;;;;;;;;;;;;4.25;73.39844;100539.7;;;;-82
2022/04/09 01:10:00;;;;;;;2.5;0.5;;;;;;;;;;;;;-80
2022/04/09 01:11:21;;;;;;;;;;;;;;;4.21;73.20313;100544.1;;;;-82
2022/04/09 01:16:24;;;;;;;;;;;;;;;4.22;72.99902;100551.5;;;;-82
2022/04/09 01:21:22;;;;;;;;;;;;;;;4.2;72.78809;100559.4;;;;-80
2022/04/09 01:26:22;;;;;;;;;;;;;;;4.15;72.76953;100563.4;;;;-80
2022/04/09 01:31:21;;;;;;;;;;;;;;;4.1;72.66211;100578.7;;;;-82
2022/04/09 01:36:21;;;;;;;;;;;;;;;4.04;72.6416;100585.1;;;;-82
2022/04/09 01:40:00;;;;;;;4.3;0.6;;;;;;;;;;;;;-82
2022/04/09 01:41:26;;;;;;;;;;;;;;;4.02;72.62598;100594.8;;;;-82
2022/04/09 01:46:21;;;;;;;;;;;;;;;4.01;72.63574;100601.3;;;;-80
2022/04/09 01:51:21;;;;;;;;;;;;;;;3.98;72.75098;100601.9;;;;-81
2022/04/09 01:56:31;;;;;;;;;;;;;;;3.95;72.85547;100605.4;;;;-81
2022/04/09 02:01:24;;;;;;;;;;;;;;;3.99;73.08008;100613.9;;;;-82
2022/04/09 02:06:25;;;;;;;;;;;;;;;4.01;73.10547;100619.4;;;;-80
2022/04/09 02:10:02;;;;;;;4.5;0.8;;;;;;;;;;;;;-80
2022/04/09 02:11:23;;;;;;;;;;;;;;;4.04;73.38477;100636.8;;;;-82
2022/04/09 02:16:21;;;;;;;;;;;;;;;4.1;73.75391;100627.1;;;;-82
2022/04/09 02:21:21;;;;;;;;;;;;;;;4.12;73.84668;100638.2;;;;-81
2022/04/09 02:26:22;;;;;;;;;;;;;;;4.14;73.8916;100635;;;;-83
2022/04/09 02:31:22;;;;;;;;;;;;;;;4.15;73.85059;100652.7;;;;-81
2022/04/09 02:36:25;;;;;;;;;;;;;;;4.15;73.77441;100661.8;;;;-80
2022/04/09 02:40:01;;;;;;;3.8;0.9;;;;;;;;;;;;;-81
2022/04/09 02:41:21;;;;;;;;;;;;;;;4.15;73.62109;100667.3;;;;-80
2022/04/09 02:46:22;;;;;;;;;;;;;;;4.13;73.43164;100664;;;;-80
2022/04/09 02:51:27;;;;;;;;;;;;;;;4.1;73.31738;100668.7;;;;-80
2022/04/09 02:56:23;;;;;;;;;;;;;;;4.06;73.21289;100676;;;;-81
2022/04/09 03:01:23;;;;;;;;;;;;;;;4.06;73.28906;100690;;;;-80
2022/04/09 03:06:23;;;;;;;;;;;;;;;4.09;73.33594;100705.1;;;;-81
2022/04/09 03:10:00;;;;;;;5.2;0.9;;;;;;;;;;;;;-81
2022/04/09 03:11:21;;;;;;;;;;;;;;;4.11;73.52637;100715.9;;;;-81
2022/04/09 03:16:22;;;;;;;;;;;;;;;4.12;73.62793;100722.7;;;;-79
2022/04/09 03:21:23;;;;;;;;;;;;;;;4.13;73.59473;100726.2;;;;-80
2022/04/09 03:26:22;;;;;;;;;;;;;;;4.11;73.46094;100730.5;;;;-80
2022/04/09 03:31:28;;;;;;;;;;;;;;;4.09;73.5127;100735.2;;;;-79
2022/04/09 03:36:22;;;;;;;;;;;;;;;4.09;73.41406;100730.4;;;;-81
2022/04/09 03:40:01;;;;;;;5.1;0.7;;;;;;;;;;;;;-80
2022/04/09 03:41:23;;;;;;;;;;;;;;;4.07;73.36719;100750.1;;;;-82
2022/04/09 03:46:24;;;;;;;;;;;;;;;4.05;73.42969;100740.3;;;;-80
2022/04/09 03:51:23;;;;;;;;;;;;;;;4.04;73.41699;100750.8;;;;-80
2022/04/09 03:56:25;;;;;;;;;;;;;;;4.02;73.46777;100748.6;;;;-80
2022/04/09 04:01:27;;;;;;;;;;;;;;;4.01;73.46582;100757.5;;;;-80
2022/04/09 04:06:21;;;;;;;;;;;;;;;3.99;73.49512;100758.5;;;;-80
2022/04/09 04:10:04;;;;;;;2.5;0.7;;;;;;;;;;;;;-80
2022/04/09 04:11:22;;;;;;;;;;;;;;;3.97;73.58105;100763.4;;;;-81
2022/04/09 04:16:22;;;;;;;;;;;;;;;3.95;73.6416;100774.1;;;;-80
2022/04/09 04:21:24;;;;;;;;;;;;;;;3.98;74.02832;100781.5;;;;-80
2022/04/09 04:26:23;;;;;;;;;;;;;;;3.98;74.00684;100784.1;;;;-81
2022/04/09 04:31:27;;;;;;;;;;;;;;;3.96;73.81641;100796.1;;;;-80
2022/04/09 04:36:29;;;;;;;;;;;;;;;3.9;73.90723;100798.1;;;;-81
2022/04/09 04:40:02;;;;;;;4.9;0.9;;;;;;;;;;;;;-80
2022/04/09 04:41:27;;;;;;;;;;;;;;;3.88;74.13184;100809;;;;-81
2022/04/09 04:46:22;;;;;;;;;;;;;;;3.86;74.01953;100811.1;;;;-81
2022/04/09 04:51:33;;;;;;;;;;;;;;;3.86;74.00879;100826.3;;;;-80
2022/04/09 04:56:26;;;;;;;;;;;;;;;3.85;73.98535;100830.4;;;;-80
2022/04/09 05:01:22;;;;;;;;;;;;;;;3.84;73.93848;100830.8;;;;-80
2022/04/09 05:06:22;;;;;;;;;;;;;;;3.84;74.09082;100840.9;;;;-81
2022/04/09 05:09:59;;;;;;;2.1;0.5;;;;;;;;;;;;;-82
2022/04/09 05:11:23;;;;;;;;;;;;;;;3.83;73.93652;100848.3;;;;-79
2022/04/09 05:16:22;;;;;;;;;;;;;;;3.85;74.00488;100856.9;;;;-82
2022/04/09 05:21:22;;;;;;;;;;;;;;;3.86;74.07422;100892.8;;;;-81
2022/04/09 05:26:31;;;;;;;;;;;;;;;3.92;74.67285;100878;;;;-81
2022/04/09 05:31:27;;;;;;;;;;;;;;;3.97;74.85645;100880.6;;;;-82
2022/04/09 05:36:38;;;;;;;;;;;;;;;4.02;74.84277;100890.4;;;;-82
2022/04/09 05:40:02;;;;;;;3.6;0.6;;;;;;;;;;;;;-82
2022/04/09 05:41:32;;;;;;;;;;;;;;;4.05;75.03516;100895.3;;;;-82
2022/04/09 05:46:28;;;;;;;;;;;;;;;4.1;75.04297;100902.2;;;;-81
2022/04/09 05:51:24;;;;;;;;;;;;;;;4.15;74.96484;100908.9;;;;-80
2022/04/09 06:01:26;;;;;;;;;;;;;;;4.29;74.72852;100916.2;;;;-83
2022/04/09 06:06:22;;;;;;;;;;;;;;;4.43;74.66309;100919.1;;;;-80
2022/04/09 06:10:03;;;;;;;3.5;0.8;;;;;;;;;;;;;-81
2022/04/09 06:11:24;;;;;;;;;;;;;;;4.65;74.28711;100925.2;;;;-80
2022/04/09 06:16:22;;;;;;;;;;;;;;;4.72;73.88379;100935.8;;;;-82
2022/04/09 06:21:21;;;;;;;;;;;;;;;4.74;74.29102;100942.6;;;;-81
2022/04/09 06:26:21;;;;;;;;;;;;;;;4.9;74.02246;100944;;;;-81
2022/04/09 06:31:21;;;;;;;;;;;;;;;5.17;73.85059;100960.5;;;;-81
2022/04/09 06:36:26;;;;;;;;;;;;;;;5.48;73.07129;100962.7;;;;-82
2022/04/09 06:40:00;;;;;;;5.7;1;;;;;;;;;;;;;-81
2022/04/09 06:41:25;;;;;;;;;;;;;;;5.83;72.71387;100977.4;;;;-81
2022/04/09 06:46:23;;;;;;;;;;;;;;;6.03;71.5498;100983.1;;;;-81
2022/04/09 06:51:25;;;;;;;;;;;;;;;6.11;71.46484;100986.3;;;;-81
2022/04/09 06:56:23;;;;;;;;;;;;;;;6.21;71.6582;100994.9;;;;-80
2022/04/09 07:01:23;;;;;;;;;;;;;;;6.5;71.32031;101002.5;;;;-81
2022/04/09 07:06:21;;;;;;;;;;;;;;;6.63;70.58301;101014.9;;;;-80
2022/04/09 07:10:08;;;;;;;9;0.9;;;;;;;;;;;;;-80
2022/04/09 07:11:23;;;;;;;;;;;;;;;6.56;70.46094;101023.5;;;;-81
2022/04/09 07:16:22;;;;;;;;;;;;;;;6.44;70.62891;101030.9;;;;-81
2022/04/09 07:21:21;;;;;;;;;;;;;;;6.3;70.65039;101039.5;;;;-80
2022/04/09 07:26:23;;;;;;;;;;;;;;;6.18;71.05957;101037.9;;;;-82
2022/04/09 07:31:23;;;;;;;;;;;;;;;6.24;71.88086;101043.4;;;;-83
2022/04/09 07:36:22;;;;;;;;;;;;;;;6.55;71.38281;101048.5;;;;-83
2022/04/09 07:40:08;;;;;;;3.8;0.7;;;;;;;;;;;;;-80
2022/04/09 07:41:24;;;;;;;;;;;;;;;6.83;70.67969;101054.2;;;;-81
2022/04/09 07:46:24;;;;;;;;;;;;;;;7.11;70.63965;101064.2;;;;-81
2022/04/09 07:51:25;;;;;;;;;;;;;;;7.45;69.70117;101061.5;;;;-81
2022/04/09 07:56:27;;;;;;;;;;;;;;;7.46;68.97656;101084.8;;;;-82
2022/04/09 08:01:23;;;;;;;;;;;;;;;7.23;69.06152;101088.7;;;;-82
2022/04/09 08:06:22;;;;;;;;;;;;;;;7.26;69.75977;101087.6;;;;-82
2022/04/09 08:10:24;;;;;;;;;;;;;;;;;;;;;
2022/04/09 08:11:28;;;;;;;;;;;;;;;7.4;69.09863;101088.5;;;;-82
2022/04/09 08:16:21;;;;;;;;;;;;;;;7.45;68.5459;101096.6;;;;-81
2022/04/09 08:21:24;;;;;;;;;;;;;;;7.44;69.0957;101105;;;;-82
2022/04/09 08:26:30;;;;;;;;;;;;;;;7.64;69.84375;101115.3;;;;-81
2022/04/09 08:31:22;;;;;;;;;;;;;;;7.94;69.02051;101126.9;;;;-81
2022/04/09 08:36:24;;;;;;;;;;;;;;;7.95;67.93066;101126.7;;;;-82
2022/04/09 08:40:02;;;;;;;4.1;0.7;;;;;;;;;;;;;-81
2022/04/09 08:41:26;;;;;;;;;;;;;;;7.79;67.67383;101132;;;;-82
2022/04/09 08:46:22;;;;;;;;;;;;;;;7.54;68.00879;101127.5;;;;-83
2022/04/09 08:51:21;;;;;;;;;;;;;;;7.66;69.75977;101130.9;;;;-81
2022/04/09 08:56:21;;;;;;;;;;;;;;;8.35;69.39453;101138.7;;;;-82
2022/04/09 09:01:27;;;;;;;;;;;;;;;8.95;67.83105;101148.2;;;;-82
2022/04/09 09:10:16;;;;;;;8.3;1;;;;;;;;;;;;;-82
2022/04/09 09:11:49;;;;;;;;;;;;;;;9.69;65.08594;101149.9;;;;-82
2022/04/09 09:16:36;;;;;;;;;;;;;;;9.85;64.66602;101154.6;;;;-82
2022/04/09 09:21:23;;;;;;;;;;;;;;;10.25;64.7373;101158.7;;;;-83
2022/04/09 09:26:28;;;;;;;;;;;;;;;10.73;63.92969;101172;;;;-82
2022/04/09 09:31:38;;;;;;;;;;;;;;;10.95;62.49316;101179.8;;;;-81
2022/04/09 09:36:33;;;;;;;;;;;;;;;10.92;61.87598;101181.6;;;;-80
2022/04/09 09:40:04;;;;;;;3.5;0.7;;;;;;;;;;;;;-80
2022/04/09 09:41:33;;;;;;;;;;;;;;;10.94;61.64355;101192;;;;-81
2022/04/09 09:46:26;;;;;;;;;;;;;;;11.14;61.70508;101197.5;;;;-82
2022/04/09 09:51:27;;;;;;;;;;;;;;;11.34;60.33984;101209;;;;-82
2022/04/09 09:56:32;;;;;;;;;;;;;;;11.27;59.85254;101202.1;;;;-84
2022/04/09 10:01:22;;;;;;;;;;;;;;;11.38;61.32813;101219.7;;;;-81
2022/04/09 10:06:22;;;;;;;;;;;;;;;11.51;60.65332;101235.3;;;;-81
2022/04/09 10:10:06;;;;;;;2.4;0.6;;;;;;;;;;;;;-81
2022/04/09 10:11:28;;;;;;;;;;;;;;;11.5;59.11328;101230.6;;;;-80
2022/04/09 10:16:22;;;;;;;;;;;;;;;11.37;60.5332;101226.7;;;;-81
2022/04/09 10:21:22;;;;;;;;;;;;;;;11.52;61.38184;101241.2;;;;-82
2022/04/09 10:26:22;;;;;;;;;;;;;;;11.5;60.07324;101253.7;;;;-79
2022/04/09 10:31:38;;;;;;;;;;;;;;;11.46;61.61719;101258.3;;;;-80
2022/04/09 10:36:39;;;;;;;;;;;;;;;11.64;60.16992;101257.4;;;;-81
2022/04/09 10:40:07;;;;;;;2.7;0.7;;;;;;;;;;;;;-82
2022/04/09 10:41:33;;;;;;;;;;;;;;;11.57;59.54883;101257.2;;;;-80
2022/04/09 10:46:25;;;;;;;;;;;;;;;11.34;60.79883;101261.9;;;;-81
2022/04/09 10:51:29;;;;;;;;;;;;;;;11.28;63.74219;101259.7;;;;-79
2022/04/09 10:56:24;;;;;;;;;;;;;;;11.39;63.76953;101271.8;;;;-81
2022/04/09 11:01:35;;;;;;;;;;;;;;;11.24;62.87793;101270.6;;;;-78
2022/04/09 11:06:32;;;;;;;;;;;;;;;11.16;64.40332;101281.4;;;;-80
2022/04/09 11:10:07;;;;;;;6.1;1;;;;;;;;;;;;;-83
2022/04/09 11:11:28;;;;;;;;;;;;;;;11.34;63.7627;101291.3;;;;-81
2022/04/09 11:16:38;;;;;;;;;;;;;;;11.29;63.61035;101286.7;;;;-81
2022/04/09 11:21:30;;;;;;;;;;;;;;;11.28;63.93164;101294;;;;-80
2022/04/09 11:26:21;;;;;;;;;;;;;;;11.43;64.06445;101295.3;;;;-81
2022/04/09 11:31:23;;;;;;;;;;;;;;;11.74;64.47949;101293.5;;;;-80
2022/04/09 11:36:30;;;;;;;;;;;;;;;12.08;63.88184;101296.3;;;;-80
2022/04/09 11:40:19;;;;;;;5.2;1;;;;;;;;;;;;;-81
2022/04/09 11:41:28;;;;;;;;;;;;;;;12.23;62.15039;101312.3;;;;-81
2022/04/09 11:46:23;;;;;;;;;;;;;;;12.1;62.51172;101308.1;;;;-80
2022/04/09 11:51:28;;;;;;;;;;;;;;;11.93;62.08691;101314.9;;;;-81
2022/04/09 11:56:31;;;;;;;;;;;;;;;11.85;63.02344;101318.2;;;;-80
2022/04/09 12:01:24;;;;;;;;;;;;;;;11.96;63.36133;101321.7;;;;-81
2022/04/09 12:06:27;;;;;;;;;;;;;;;12.18;63.03516;101335.3;;;;-81
2022/04/09 12:10:11;;;;;;;5.1;1;;;;;;;;;;;;;-80
2022/04/09 12:11:26;;;;;;;;;;;;;;;12.26;62.52344;101333.6;;;;-80
2022/04/09 12:16:25;;;;;;;;;;;;;;;12.33;61.80859;101348.9;;;;-80
2022/04/09 12:21:31;;;;;;;;;;;;;;;12.52;60.69531;101362.8;;;;-80
2022/04/09 12:26:32;;;;;;;;;;;;;;;12.38;60.2168;101367.6;;;;-81
2022/04/09 12:31:32;;;;;;;;;;;;;;;12.25;60.69043;101373.4;;;;-79
2022/04/09 12:36:22;;;;;;;;;;;;;;;12.31;61.27832;101370.1;;;;-81
2022/04/09 12:41:26;;;;;;;;;;;;;;;12.6;61.00684;101378.3;;;;-81
2022/04/09 12:46:38;;;;;;;;;;;;;;;12.79;61.59375;101388;;;;-81
2022/04/09 12:51:25;;;;;;;;;;;;;;;12.9;61.56348;101385.6;;;;-81
2022/04/09 12:56:27;;;;;;;;;;;;;;;12.98;62.49219;101373.6;;;;-83
2022/04/09 13:01:25;;;;;;;;;;;;;;;13.13;62.27832;101382.5;;;;-83
2022/04/09 13:06:24;;;;;;;;;;;;;;;13.36;61.99805;101389.8;;;;-82
2022/04/09 13:10:24;;;;;;;5.8;1.2;;;;;;;;;;;;;-82
2022/04/09 13:11:21;;;;;;;;;;;;;;;13.52;61.71777;101388.4;;;;-81
2022/04/09 13:16:23;;;;;;;;;;;;;;;13.77;62.20117;101394.9;;;;-82
2022/04/09 13:21:21;;;;;;;;;;;;;;;14.08;61.36914;101388.3;;;;-81
2022/04/09 13:26:25;;;;;;;;;;;;;;;14.17;62.05469;101386.3;;;;-82
2022/04/09 13:31:26;;;;;;;;;;;;;;;14.31;61.76172;101384.9;;;;-85
2022/04/09 13:36:33;;;;;;;;;;;;;;;14.5;61.40625;101399.6;;;;-83
2022/04/09 13:40:25;;;;;;;4.1;1;;;;;;;;;;;;;-84
2022/04/09 13:41:32;;;;;;;;;;;;;;;14.43;60.11523;101401.9;;;;-82
2022/04/09 13:46:24;;;;;;;;;;;;;;;14.32;59.29297;101400.6;;;;-82
2022/04/09 13:51:23;;;;;;;;;;;;;;;14.18;58.9707;101406.3;;;;-82
2022/04/09 13:56:42;;;;;;;;;;;;;;;14.16;59.0127;101404.6;;;;-84
2022/04/09 14:01:22;;;;;;;;;;;;;;;14.1;58.32031;101409.3;;;;-81
2022/04/09 14:06:31;;;;;;;;;;;;;;;13.97;58.44922;101418;;;;-82
2022/04/09 14:10:32;;;;;;;3.7;1;;;;;;;;;;;;;-82
2022/04/09 14:11:25;;;;;;;;;;;;;;;13.96;59.2666;101401.7;;;;-82
2022/04/09 14:16:23;;;;;;;;;;;;;;;13.93;57.94922;101427;;;;-82
2022/04/09 14:21:23;;;;;;;;;;;;;;;13.77;57.39063;101424.6;;;;-83
2022/04/09 14:26:29;;;;;;;;;;;;;;;13.55;56.7207;101428.9;;;;-80
2022/04/09 14:31:25;;;;;;;;;;;;;;;13.32;57.53223;101427.5;;;;-83
2022/04/09 14:36:23;;;;;;;;;;;;;;;13.19;58.07617;101415.2;;;;-82
2022/04/09 14:40:42;;;;;;;3.3;0.9;;;;;;;;;;;;;-82
2022/04/09 14:41:29;;;;;;;;;;;;;;;13.07;57.65625;101433.6;;;;-81
2022/04/09 14:46:28;;;;;;;;;;;;;;;13;57.15527;101428.5;;;;-82
2022/04/09 14:51:24;;;;;;;;;;;;;;;13.05;57.29492;101425.6;;;;-81
2022/04/09 14:56:30;;;;;;;;;;;;;;;13.16;57.0293;101441.9;;;;-81
2022/04/09 15:01:37;;;;;;;;;;;;;;;13.1;56.69727;101447.2;;;;-81
2022/04/09 15:06:21;;;;;;;;;;;;;;;12.98;56.31055;101443.4;;;;-81
2022/04/09 15:10:22;;;;;;;5.4;1.3;;;;;;;;;;;;;-83
2022/04/09 15:11:23;;;;;;;;;;;;;;;12.8;56.37793;101451.6;;;;-81
2022/04/09 15:16:21;;;;;;;;;;;;;;;12.62;56.51172;101447.9;;;;-83
2022/04/09 15:21:31;;;;;;;;;;;;;;;12.71;54.89941;101453.4;;;;-81
2022/04/09 15:26:30;;;;;;;;;;;;;;;12.7;55.06641;101455.2;;;;-83
2022/04/09 15:31:31;;;;;;;;;;;;;;;12.62;54.39648;101475.5;;;;-83
2022/04/09 15:36:22;;;;;;;;;;;;;;;12.41;55.34277;101473.1;;;;-82
2022/04/09 15:40:40;;;;;;;8.3;1.3;;;;;;;;;;;;;-84
2022/04/09 15:41:27;;;;;;;;;;;;;;;12.28;55.61621;101478.4;;;;-82
2022/04/09 15:46:25;;;;;;;;;;;;;;;12.38;55.36035;101485.8;;;;-80
2022/04/09 15:51:34;;;;;;;;;;;;;;;12.29;55.54102;101488.2;;;;-82
2022/04/09 15:56:26;;;;;;;;;;;;;;;12.1;55.37109;101495.1;;;;-83
2022/04/09 16:01:23;;;;;;;;;;;;;;;11.85;55.70898;101496.1;;;;-81
2022/04/09 16:06:22;;;;;;;;;;;;;;;11.57;56.3877;101499.7;;;;-83
2022/04/09 16:10:27;;;;;;;7.2;1.5;;;;;;;;;;;;;-81
2022/04/09 16:11:22;;;;;;;;;;;;;;;11.38;56.3291;101503.3;;;;-83
2022/04/09 16:16:31;;;;;;;;;;;;;;;11.16;56.49023;101506.6;;;;-83
2022/04/09 16:21:27;;;;;;;;;;;;;;;10.99;57.21484;101516.3;;;;-82
2022/04/09 16:26:28;;;;;;;;;;;;;;;10.99;57.12793;101521.4;;;;-82
2022/04/09 16:31:45;;;;;;;;;;;;;;;10.94;56.48535;101531.9;;;;-82
2022/04/09 16:36:24;;;;;;;;;;;;;;;10.78;56.94336;101533.9;;;;-81
2022/04/09 16:40:26;;;;;;;5.2;1;;;;;;;;;;;;;-82
2022/04/09 16:41:23;;;;;;;;;;;;;;;10.54;56.54492;101539.6;;;;-82
2022/04/09 16:46:24;;;;;;;;;;;;;;;10.32;57.75098;101539.1;;;;-82
2022/04/09 16:51:28;;;;;;;;;;;;;;;10.3;58.09375;101547.2;;;;-81
2022/04/09 16:56:24;;;;;;;;;;;;;;;10.31;57.59375;101544.5;;;;-82
2022/04/09 17:01:25;;;;;;;;;;;;;;;10.2;57.69238;101551.5;;;;-80
2022/04/09 17:06:24;;;;;;;;;;;;;;;10.1;58.0459;101557.6;;;;-81
2022/04/09 17:10:27;;;;;;;2.9;0.6;;;;;;;;;;;;;-81
2022/04/09 17:11:22;;;;;;;;;;;;;;;10;57.41992;101556;;;;-82
2022/04/09 17:16:33;;;;;;;;;;;;;;;9.8;57.60449;101559.3;;;;-81
2022/04/09 17:21:21;;;;;;;;;;;;;;;9.63;58.00488;101566.7;;;;-82
2022/04/09 17:26:32;;;;;;;;;;;;;;;9.43;58.62305;101573;;;;-81
2022/04/09 17:31:43;;;;;;;;;;;;;;;9.25;58.67578;101574.4;;;;-81
2022/04/09 17:36:24;;;;;;;;;;;;;;;9.1;59.17773;101571.9;;;;-81
2022/04/09 17:40:29;;;;;;;3.2;0.8;;;;;;;;;;;;;-81
2022/04/09 17:41:34;;;;;;;;;;;;;;;9;59.68555;101580.3;;;;-82
2022/04/09 17:46:35;;;;;;;;;;;;;;;8.82;59.70508;101581.3;;;;-81
2022/04/09 17:51:34;;;;;;;;;;;;;;;8.65;59.79297;101580;;;;-82
2022/04/09 17:56:22;;;;;;;;;;;;;;;8.47;59.81055;101586.1;;;;-82
2022/04/09 18:01:29;;;;;;;;;;;;;;;8.27;60.02734;101594.1;;;;-82
2022/04/09 18:06:23;;;;;;;;;;;;;;;8.08;59.75879;101588.5;;;;-81
2022/04/09 18:10:28;;;;;;;4;0.9;;;;;;;;;;;;;-82
2022/04/09 18:11:22;;;;;;;;;;;;;;;7.89;60.15234;101598.8;;;;-81
2022/04/09 18:16:25;;;;;;;;;;;;;;;7.68;60.42188;101597.9;;;;-81
2022/04/09 18:21:21;;;;;;;;;;;;;;;7.5;60.39551;101603.4;;;;-82
2022/04/09 18:26:32;;;;;;;;;;;;;;;7.32;60.76953;101608.7;;;;-82
2022/04/09 18:31:21;;;;;;;;;;;;;;;7.15;61.25293;101606.6;;;;-81
2022/04/09 18:36:27;;;;;;;;;;;;;;;6.98;61.62598;101606.6;;;;-81
2022/04/09 18:40:33;;;;;;;3.7;0.8;;;;;;;;;;;;;-83
2022/04/09 18:41:24;;;;;;;;;;;;;;;6.84;62.01465;101612.1;;;;-82
2022/04/09 18:46:26;;;;;;;;;;;;;;;6.72;62.31738;101613.9;;;;-81
2022/04/09 18:56:26;;;;;;;;;;;;;;;6.44;63.08105;101632.3;;;;-81
2022/04/09 19:01:31;;;;;;;;;;;;;;;6.3;63.3252;101638.8;;;;-83
2022/04/09 19:06:22;;;;;;;;;;;;;;;6.25;63.44922;101651.6;;;;-81
2022/04/09 19:10:29;;;;;;;3.3;0.9;;;;;;;;;;;;;-81
2022/04/09 19:11:27;;;;;;;;;;;;;;;6.15;63.47949;101661.4;;;;-81
2022/04/09 19:16:21;;;;;;;;;;;;;;;6.07;63.54492;101655.4;;;;-81
2022/04/09 19:21:23;;;;;;;;;;;;;;;6.04;63.56152;101667.7;;;;-82
2022/04/09 19:26:26;;;;;;;;;;;;;;;5.98;63.57422;101672;;;;-81
2022/04/09 19:31:24;;;;;;;;;;;;;;;5.96;63.83691;101675.2;;;;-80
2022/04/09 19:36:25;;;;;;;;;;;;;;;5.87;64.03223;101678.7;;;;-82
2022/04/09 19:40:30;;;;;;;3.2;0.7;;;;;;;;;;;;;-82
2022/04/09 19:41:34;;;;;;;;;;;;;;;5.82;64.24414;101692.3;;;;-82
2022/04/09 19:46:21;;;;;;;;;;;;;;;5.74;64.30859;101693.8;;;;-82
2022/04/09 19:51:22;;;;;;;;;;;;;;;5.64;64.42676;101704.5;;;;-80
2022/04/09 19:59:56;;;;;;;;;;;;;;;5.47;64.59863;101710.4;;;;-81
2022/04/09 20:05:01;;;;;;;;;;;;;;;5.37;64.75977;101710.9;;;;-81
2022/04/09 20:10:01;;;;;;;;;;;;;;;5.29;64.82324;101714.4;;;;-80
2022/04/09 20:10:30;;;;;;;3.3;1;;;;;;;;;;;;;-80
2022/04/09 20:14:55;;;;;;;;;;;;;;;5.19;64.92969;101714.1;;;;-79
2022/04/09 20:19:55;;;;;;;;;;;;;;;5.13;64.87695;101738.5;;;;-81
2022/04/09 20:24:56;;;;;;;;;;;;;;;5.08;65.14453;101728.8;;;;-82
2022/04/09 20:30:00;;;;;;;;;;;;;;;5.03;65.43164;101731.7;;;;-81
2022/04/09 20:35:04;;;;;;;;;;;;;;;4.98;65.48926;101740.5;;;;-80
2022/04/09 20:40:06;;;;;;;;;;;;;;;4.92;65.52539;101739.3;;;;-82
2022/04/09 20:40:33;;;;;;;2.8;0.8;;;;;;;;;;;;;-81
2022/04/09 20:44:57;;;;;;;;;;;;;;;4.85;65.58105;101751.4;;;;-80
2022/04/09 20:49:58;;;;;;;;;;;;;;;4.75;65.73047;101751.1;;;;-80
2022/04/09 20:55:06;;;;;;;;;;;;;;;4.65;65.93457;101756.1;;;;-83
2022/04/09 20:59:58;;;;;;;;;;;;;;;4.55;65.91895;101757.6;;;;-81
2022/04/09 21:05:01;;;;;;;;;;;;;;;4.46;65.95898;101764.9;;;;-79
2022/04/09 21:10:01;;;;;;;;;;;;;;;4.36;65.88867;101766.5;;;;-81
2022/04/09 21:10:35;;;;;;;2.4;0.8;;;;;;;;;;;;;-81
2022/04/09 21:14:58;;;;;;;;;;;;;;;4.26;66.1377;101767;;;;-80
2022/04/09 21:19:57;;;;;;;;;;;;;;;4.2;66.18262;101769.1;;;;-83
2022/04/09 21:25:02;;;;;;;;;;;;;;;4.16;66.14258;101762.6;;;;-80
2022/04/09 21:29:56;;;;;;;;;;;;;;;4.09;66.46094;101768.6;;;;-80
2022/04/09 21:35:01;;;;;;;;;;;;;;;4.05;66.3457;101776.3;;;;-80
2022/04/09 21:40:08;;;;;;;;;;;;;;;3.99;66.5332;101780.6;;;;-81
2022/04/09 21:40:35;;;;;;;2.5;0.7;;;;;;;;;;;;;-80
2022/04/09 21:44:58;;;;;;;;;;;;;;;3.96;66.64941;101783.3;;;;-80
2022/04/09 21:50:33;;;;;;;;;;;;;;;3.93;66.61035;101786.3;;;;-79
2022/04/09 21:54:58;;;;;;;;;;;;;;;3.91;66.56445;101789.9;;;;-81
2022/04/09 22:00:09;;;;;;;;;;;;;;;3.88;66.53809;101796.1;;;;-81
2022/04/09 22:05:11;;;;;;;;;;;;;;;3.87;66.63672;101802.6;;;;-80
2022/04/09 22:10:05;;;;;;;;;;;;;;;3.87;66.64453;101803.9;;;;-82
2022/04/09 22:10:47;;;;;;;4.9;1;;;;;;;;;;;;;-81
2022/04/09 22:15:10;;;;;;;;;;;;;;;3.87;66.69922;101807.2;;;;-81
2022/04/09 22:20:20;;;;;;;;;;;;;;;3.86;67.05859;101803.3;;;;-82
2022/04/09 22:24:59;;;;;;;;;;;;;;;3.89;67.17383;101806.4;;;;-81
2022/04/09 22:30:00;;;;;;;;;;;;;;;3.91;67.1543;101809.7;;;;-80
2022/04/09 22:34:55;;;;;;;;;;;;;;;3.91;67.0459;101814;;;;-80
2022/04/09 22:39:56;;;;;;;;;;;;;;;3.89;66.97656;101817.2;;;;-82
2022/04/09 22:40:33;;;;;;;4.2;0.9;;;;;;;;;;;;;-80
2022/04/09 22:44:55;;;;;;;;;;;;;;;3.86;66.85059;101813.7;;;;-82
2022/04/09 22:50:02;;;;;;;;;;;;;;;3.85;66.76367;101823.6;;;;-81
2022/04/09 22:54:55;;;;;;;;;;;;;;;3.83;66.63867;101828.4;;;;-81
2022/04/09 22:59:57;;;;;;;;;;;;;;;3.79;66.66602;101832.2;;;;-80
2022/04/09 23:04:56;;;;;;;;;;;;;;;3.73;66.75488;101840.7;;;;-82
2022/04/09 23:09:58;;;;;;;;;;;;;;;3.69;66.79297;101843.9;;;;-80
2022/04/09 23:10:34;;;;;;;2.9;0.8;;;;;;;;;;;;;-81
2022/04/09 23:14:55;;;;;;;;;;;;;;;3.64;66.82813;101840.1;;;;-81
2022/04/09 23:19:57;;;;;;;;;;;;;;;3.59;66.70215;101845.5;;;;-80
2022/04/09 23:24:57;;;;;;;;;;;;;;;3.52;66.75586;101845.8;;;;-81
2022/04/09 23:29:56;;;;;;;;;;;;;;;3.48;66.87988;101856.4;;;;-82
2022/04/09 23:34:59;;;;;;;;;;;;;;;3.47;66.86621;101855.5;;;;-81
2022/04/09 23:39:55;;;;;;;;;;;;;;;3.48;66.91309;101860.4;;;;-82
2022/04/09 23:40:31;;;;;;;2.5;0.7;;;;;;;;;;;;;-81
2022/04/09 23:44:57;;;;;;;;;;;;;;;3.49;66.81641;101864.9;;;;-80
2022/04/09 23:49:57;;;;;;;;;;;;;;;3.51;66.93945;101866.7;;;;-81
2022/04/09 23:54:55;;;;;;;;;;;;;;;3.49;66.84863;101869;;;;-82
2022/04/09 23:59:56;;;;;;;;;;;;;;;3.47;66.82422;101870.4;;;;-81
